createdAt,value
2022-12-14T00:01:11.156Z,6.85
2022-12-14T00:03:14.602Z,6.57
2022-12-14T00:05:19.782Z,6.63
2022-12-14T00:07:22.545Z,5.13
2022-12-14T00:09:25.221Z,6.68
2022-12-14T00:11:28.535Z,8.07
2022-12-14T00:13:32.588Z,8.27
2022-12-14T00:15:37.692Z,6.28
2022-12-14T00:17:40.796Z,6.72
2022-12-14T00:19:43.504Z,7.38
2022-12-14T00:21:51.580Z,7.20
2022-12-14T00:23:55.342Z,6.57
2022-12-14T00:25:58.087Z,7.70
2022-12-14T00:28:00.813Z,8.23
2022-12-14T00:30:05.466Z,7.85
2022-12-14T00:32:08.186Z,5.55
2022-12-14T00:34:10.840Z,6.40
2022-12-14T00:36:14.006Z,5.05
2022-12-14T00:38:16.688Z,8.05
2022-12-14T00:40:19.450Z,6.90
2022-12-14T00:42:22.055Z,6.78
2022-12-14T00:44:24.650Z,8.02
2022-12-14T00:46:28.724Z,7.10
2022-12-14T00:48:32.574Z,3.47
2022-12-14T00:50:35.706Z,7.13
2022-12-14T00:52:38.350Z,7.63
2022-12-14T00:54:41.054Z,6.38
2022-12-14T00:56:43.784Z,8.27
2022-12-14T00:58:51.785Z,7.72
2022-12-14T01:01:00.493Z,5.05
2022-12-14T01:03:05.556Z,7.60
2022-12-14T01:05:09.074Z,7.00
2022-12-14T01:07:11.754Z,7.70
2022-12-14T01:09:14.878Z,6.70
2022-12-14T01:11:17.572Z,8.27
2022-12-14T01:13:20.157Z,8.65
2022-12-14T01:15:22.884Z,6.18
2022-12-14T01:17:25.507Z,7.55
2022-12-14T01:19:29.606Z,7.25
2022-12-14T01:21:32.864Z,5.80
2022-12-14T01:23:35.544Z,4.85
2022-12-14T01:25:38.256Z,6.35
2022-12-14T01:27:40.950Z,6.63
2022-12-14T01:29:43.687Z,7.63
2022-12-14T01:31:48.591Z,7.22
2022-12-14T01:33:51.642Z,6.05
2022-12-14T01:35:55.612Z,7.53
2022-12-14T01:37:58.387Z,6.60
2022-12-14T01:40:01.090Z,7.28
2022-12-14T01:42:03.855Z,6.93
2022-12-14T01:44:39.670Z,7.28
2022-12-14T01:46:46.569Z,7.25
2022-12-14T01:48:52.165Z,8.55
2022-12-14T01:50:56.202Z,7.78
2022-12-14T01:53:02.462Z,7.05
2022-12-14T01:55:08.601Z,7.53
2022-12-14T01:57:12.310Z,6.85
2022-12-14T01:59:19.108Z,7.78
2022-12-14T02:01:21.815Z,8.20
2022-12-14T02:03:28.418Z,8.60
2022-12-14T02:05:34.468Z,7.00
2022-12-14T02:07:39.900Z,7.43
2022-12-14T02:09:45.174Z,7.55
2022-12-14T02:11:56.951Z,8.38
2022-12-14T02:13:59.601Z,7.72
2022-12-14T02:16:02.401Z,9.18
2022-12-14T02:18:08.983Z,8.15
2022-12-14T02:20:12.964Z,7.03
2022-12-14T02:22:39.999Z,7.40
2022-12-14T02:25:01.487Z,9.10
2022-12-14T02:27:13.551Z,7.45
2022-12-14T02:29:45.275Z,7.22
2022-12-14T02:31:55.484Z,7.40
2022-12-14T02:34:06.284Z,7.72
2022-12-14T02:36:18.784Z,8.82
2022-12-14T02:38:36.287Z,8.55
2022-12-14T02:40:45.970Z,7.72
2022-12-14T02:43:02.885Z,7.93
2022-12-14T02:45:13.866Z,7.03
2022-12-14T02:47:24.297Z,7.43
2022-12-14T02:49:43.111Z,7.25
2022-12-14T02:54:03.373Z,7.55
2022-12-14T02:56:10.526Z,7.75
2022-12-14T03:00:20.494Z,6.03
2022-12-14T03:02:24.569Z,7.55
2022-12-14T03:04:27.257Z,9.60
2022-12-14T03:06:30.222Z,8.55
2022-12-14T03:08:35.493Z,8.63
2022-12-14T03:10:46.140Z,7.03
2022-12-14T03:12:55.539Z,9.80
2022-12-14T03:15:00.564Z,8.63
2022-12-14T03:17:15.185Z,9.07
2022-12-14T03:19:24.663Z,7.47
2022-12-14T03:23:37.336Z,7.18
2022-12-14T03:25:46.117Z,7.40
2022-12-14T03:27:56.437Z,8.57
2022-12-14T03:30:03.260Z,7.95
2022-12-14T03:32:11.396Z,8.30
2022-12-14T03:34:16.819Z,9.13
2022-12-14T03:36:26.622Z,9.52
2022-12-14T03:38:35.045Z,8.82
2022-12-14T03:40:43.392Z,9.77
2022-12-14T03:42:58.222Z,7.43
2022-12-14T03:45:05.502Z,8.77
2022-12-14T03:47:22.238Z,9.45
2022-12-14T03:49:35.843Z,7.53
2022-12-14T03:51:47.488Z,7.60
2022-12-14T03:53:57.548Z,9.68
2022-12-14T03:56:05.127Z,8.35
2022-12-14T03:58:29.856Z,9.88
2022-12-14T04:00:38.156Z,8.60
2022-12-14T04:02:48.816Z,7.40
2022-12-14T04:04:58.015Z,10.43
2022-12-14T04:07:09.463Z,10.20
2022-12-14T04:09:24.634Z,9.05
2022-12-14T04:11:49.887Z,8.05
2022-12-14T04:14:15.719Z,9.27
2022-12-14T04:16:43.162Z,10.30
2022-12-14T04:19:00.887Z,10.25
2022-12-14T04:21:10.261Z,7.88
2022-12-14T04:23:41.055Z,8.05
2022-12-14T04:26:04.873Z,6.93
2022-12-14T04:28:33.107Z,9.35
2022-12-14T04:30:39.363Z,9.40
2022-12-14T04:32:46.855Z,9.38
2022-12-14T04:34:55.282Z,10.30
2022-12-14T04:37:01.042Z,10.52
2022-12-14T04:39:07.375Z,8.15
2022-12-14T04:41:15.079Z,7.68
2022-12-14T04:43:21.885Z,8.95
2022-12-14T04:45:29.185Z,10.43
2022-12-14T04:47:44.761Z,9.85
2022-12-14T04:49:53.381Z,10.30
2022-12-14T04:52:05.577Z,9.82
2022-12-14T04:54:13.898Z,11.18
2022-12-14T04:56:24.211Z,8.65
2022-12-14T04:58:30.574Z,10.38
2022-12-14T05:00:38.919Z,10.27
2022-12-14T05:02:54.390Z,11.38
2022-12-14T05:05:09.520Z,9.48
2022-12-14T05:07:20.688Z,10.85
2022-12-14T05:09:28.314Z,9.32
2022-12-14T05:14:04.692Z,8.63
2022-12-14T05:16:08.339Z,11.30
2022-12-14T05:18:11.799Z,9.00
2022-12-14T05:20:17.878Z,9.68
2022-12-14T05:22:20.708Z,11.35
2022-12-14T05:24:23.412Z,10.90
2022-12-14T05:26:26.130Z,11.07
2022-12-14T05:28:28.931Z,10.48
2022-12-14T05:30:31.690Z,10.80
2022-12-14T05:32:34.483Z,11.30
2022-12-14T05:34:37.112Z,10.15
2022-12-14T05:36:41.117Z,10.32
2022-12-14T05:38:43.785Z,10.52
2022-12-14T05:40:46.707Z,11.68
2022-12-14T05:42:55.260Z,10.60
2022-12-14T05:44:58.598Z,12.63
2022-12-14T05:47:01.308Z,12.15
2022-12-14T05:49:04.013Z,11.98
2022-12-14T05:51:08.451Z,12.80
2022-12-14T05:53:12.475Z,13.63
2022-12-14T05:55:15.223Z,11.70
2022-12-14T05:57:17.992Z,11.73
2022-12-14T05:59:20.637Z,12.45
2022-12-14T06:01:23.353Z,11.95
2022-12-14T06:03:26.588Z,12.43
2022-12-14T06:05:29.413Z,13.70
2022-12-14T06:07:32.140Z,13.27
2022-12-14T06:09:36.152Z,14.25
2022-12-14T06:11:40.460Z,12.55
2022-12-14T06:13:44.395Z,14.07
2022-12-14T06:15:47.020Z,12.27
2022-12-14T06:17:50.395Z,12.32
2022-12-14T06:19:53.099Z,12.25
2022-12-14T06:21:56.796Z,12.10
2022-12-14T06:24:00.403Z,13.02
2022-12-14T06:26:04.702Z,10.63
2022-12-14T06:28:07.363Z,12.55
2022-12-14T06:30:12.145Z,14.18
2022-12-14T06:32:14.941Z,13.98
2022-12-14T06:34:18.303Z,14.43
2022-12-14T06:36:23.935Z,14.38
2022-12-14T06:38:26.775Z,14.65
2022-12-14T06:40:29.469Z,14.10
2022-12-14T06:42:33.647Z,12.90
2022-12-14T06:44:37.421Z,12.77
2022-12-14T06:46:40.809Z,15.07
2022-12-14T06:48:43.862Z,12.85
2022-12-14T06:50:46.538Z,15.10
2022-12-14T06:52:50.206Z,14.00
2022-12-14T06:54:52.848Z,14.10
2022-12-14T06:56:55.495Z,14.82
2022-12-14T06:58:59.552Z,14.52
2022-12-14T07:01:03.652Z,15.82
2022-12-14T07:03:06.533Z,13.88
2022-12-14T07:05:09.747Z,14.48
2022-12-14T07:07:12.427Z,13.20
2022-12-14T07:09:15.660Z,15.60
2022-12-14T07:11:18.643Z,14.88
2022-12-14T07:13:22.081Z,15.95
2022-12-14T07:15:26.126Z,16.27
2022-12-14T07:17:28.885Z,15.98
2022-12-14T07:19:31.620Z,15.20
2022-12-14T07:21:34.508Z,15.95
2022-12-14T07:23:38.781Z,14.77
2022-12-14T07:25:41.467Z,14.10
2022-12-14T07:27:44.151Z,15.80
2022-12-14T07:29:46.914Z,14.85
2022-12-14T07:31:51.023Z,15.70
2022-12-14T07:33:54.382Z,15.90
2022-12-14T07:36:02.904Z,13.63
2022-12-14T07:38:05.604Z,15.50
2022-12-14T07:40:09.996Z,13.10
2022-12-14T07:42:12.927Z,15.77
2022-12-14T07:44:15.772Z,16.20
2022-12-14T07:46:20.438Z,15.68
2022-12-14T07:48:24.493Z,16.35
2022-12-14T07:50:27.147Z,16.30
2022-12-14T07:52:35.717Z,16.95
2022-12-14T07:54:40.035Z,15.40
2022-12-14T07:56:44.671Z,13.70
2022-12-14T07:58:47.542Z,15.95
2022-12-14T08:00:50.172Z,15.13
2022-12-14T08:02:56.015Z,16.38
2022-12-14T08:04:59.991Z,15.27
2022-12-14T08:07:02.695Z,15.07
2022-12-14T08:09:06.426Z,14.73
2022-12-14T08:11:10.116Z,12.90
2022-12-14T08:13:12.747Z,14.85
2022-12-14T08:15:15.422Z,13.27
2022-12-14T08:17:18.036Z,14.02
2022-12-14T08:19:21.387Z,14.02
2022-12-14T08:21:26.545Z,12.32
2022-12-14T08:23:29.542Z,14.70
2022-12-14T08:25:32.474Z,13.30
2022-12-14T08:27:35.112Z,13.32
2022-12-14T08:29:37.845Z,11.73
2022-12-14T08:31:40.665Z,11.95
2022-12-14T08:33:45.211Z,12.90
2022-12-14T08:35:47.912Z,11.65
2022-12-14T08:37:53.192Z,11.88
2022-12-14T08:39:55.917Z,12.15
2022-12-14T08:41:58.594Z,12.48
2022-12-14T08:44:03.551Z,14.75
2022-12-14T08:46:07.055Z,13.02
2022-12-14T08:48:10.037Z,13.32
2022-12-14T08:50:12.733Z,12.10
2022-12-14T08:52:16.318Z,12.98
2022-12-14T08:54:20.354Z,13.05
2022-12-14T08:56:25.588Z,14.23
2022-12-14T08:58:28.251Z,13.95
2022-12-14T09:00:31.032Z,13.73
2022-12-14T09:02:33.878Z,12.50
2022-12-14T09:04:36.680Z,13.38
2022-12-14T09:06:40.521Z,13.15
2022-12-14T09:08:43.591Z,14.27
2022-12-14T09:10:51.651Z,13.75
2022-12-14T09:12:54.308Z,14.52
2022-12-14T09:14:57.105Z,13.65
2022-12-14T09:16:59.904Z,12.45
2022-12-14T09:19:02.658Z,12.68
2022-12-14T09:21:05.768Z,13.35
2022-12-14T09:23:08.362Z,12.48
2022-12-14T09:25:11.423Z,14.18
2022-12-14T09:27:15.390Z,13.88
2022-12-14T09:29:19.754Z,13.63
2022-12-14T09:31:25.083Z,15.13
2022-12-14T09:33:29.424Z,13.45
2022-12-14T09:35:32.431Z,13.43
2022-12-14T09:37:35.491Z,12.73
2022-12-14T09:39:38.367Z,14.20
2022-12-14T09:41:53.190Z,12.57
2022-12-14T09:44:06.387Z,14.13
2022-12-14T09:46:32.999Z,14.77
2022-12-14T09:48:36.171Z,15.27
2022-12-14T09:50:40.721Z,15.77
2022-12-14T09:52:46.705Z,17.02
2022-12-14T09:54:50.256Z,16.38
2022-12-14T09:56:54.163Z,15.02
2022-12-14T09:58:59.351Z,17.23
2022-12-14T10:01:39.995Z,12.48
2022-12-14T10:03:55.414Z,15.18
2022-12-14T10:06:16.691Z,17.00
2022-12-14T10:08:24.297Z,13.50
2022-12-14T10:10:33.796Z,17.92
2022-12-14T10:12:51.483Z,16.85
2022-12-14T10:15:05.872Z,18.48
2022-12-14T10:17:16.861Z,15.50
2022-12-14T10:19:33.289Z,18.42
2022-12-14T10:21:46.208Z,17.63
2022-12-14T10:23:55.822Z,18.23
2022-12-14T10:26:03.410Z,17.85
2022-12-14T10:28:14.381Z,16.17
2022-12-14T10:30:20.098Z,18.08
2022-12-14T10:32:31.473Z,18.02
2022-12-14T10:34:35.743Z,16.02
2022-12-14T10:36:45.803Z,15.30
2022-12-14T10:38:57.208Z,14.50
2022-12-14T10:41:06.779Z,16.15
2022-12-14T10:43:30.322Z,16.42
2022-12-14T10:45:42.516Z,17.15
2022-12-14T10:47:50.774Z,17.48
2022-12-14T10:50:02.563Z,15.73
2022-12-14T10:52:12.326Z,13.90
2022-12-14T10:54:26.422Z,17.13
2022-12-14T10:56:33.978Z,15.90
2022-12-14T10:58:36.713Z,15.38
2022-12-14T11:00:39.729Z,16.38
2022-12-14T11:02:45.004Z,18.58
2022-12-14T11:04:56.437Z,16.40
2022-12-14T11:07:01.136Z,15.48
2022-12-14T11:09:21.168Z,15.48
2022-12-14T11:11:25.619Z,16.45
2022-12-14T11:13:28.408Z,16.73
2022-12-14T11:15:34.458Z,17.95
2022-12-14T11:17:39.023Z,16.80
2022-12-14T11:19:41.881Z,17.90
2022-12-14T11:21:49.802Z,16.50
2022-12-14T11:23:55.556Z,18.50
2022-12-14T11:26:00.270Z,18.52
2022-12-14T11:28:06.863Z,18.77
2022-12-14T11:30:17.484Z,17.52
2022-12-14T11:32:24.814Z,17.92
2022-12-14T11:34:34.491Z,19.17
2022-12-14T11:36:39.596Z,18.88
2022-12-14T11:38:43.635Z,19.13
2022-12-14T11:40:47.043Z,19.80
2022-12-14T11:42:51.201Z,17.67
2022-12-14T11:44:55.145Z,19.48
2022-12-14T11:47:03.642Z,18.52
2022-12-14T11:49:19.330Z,18.20
2022-12-14T11:51:22.042Z,17.98
2022-12-14T11:53:24.737Z,18.73
2022-12-14T11:55:29.889Z,18.40
2022-12-14T11:57:36.069Z,18.60
2022-12-14T11:59:42.053Z,18.08
2022-12-14T12:01:45.293Z,17.40
2022-12-14T12:03:50.712Z,19.10
2022-12-14T12:05:55.090Z,18.02
2022-12-14T12:07:59.939Z,21.00
2022-12-14T12:10:07.771Z,16.25
2022-12-14T12:12:19.218Z,15.88
2022-12-14T12:14:30.621Z,16.42
2022-12-14T12:16:35.450Z,18.60
2022-12-14T12:18:46.494Z,16.63
2022-12-14T12:20:54.985Z,17.35
2022-12-14T12:23:05.706Z,17.90
2022-12-14T12:25:25.936Z,17.45
2022-12-14T12:27:33.153Z,16.77
2022-12-14T12:29:40.405Z,18.50
2022-12-14T12:31:49.353Z,17.65
2022-12-14T12:33:59.079Z,19.33
2022-12-14T12:36:05.660Z,16.92
2022-12-14T12:38:14.925Z,17.92
2022-12-14T12:40:20.649Z,15.75
2022-12-14T12:42:29.745Z,18.63
2022-12-14T12:44:50.211Z,18.48
2022-12-14T12:49:25.308Z,19.73
2022-12-14T12:51:32.190Z,17.65
2022-12-14T12:53:39.621Z,17.90
2022-12-14T12:55:47.211Z,17.45
2022-12-14T12:57:54.561Z,18.67
2022-12-14T12:59:59.991Z,20.33
2022-12-14T13:02:17.449Z,20.73
2022-12-14T13:04:28.863Z,21.23
2022-12-14T13:06:35.722Z,18.52
2022-12-14T13:08:41.105Z,20.25
2022-12-14T13:11:17.234Z,23.10
2022-12-14T13:13:14.663Z,23.13
2022-12-14T13:15:24.491Z,23.35
2022-12-14T13:17:35.355Z,22.40
2022-12-14T13:19:51.710Z,24.20
2022-12-14T13:21:59.204Z,24.33
2022-12-14T13:24:12.189Z,24.15
2022-12-14T13:26:56.749Z,23.45
2022-12-14T13:29:05.253Z,25.98
2022-12-14T13:31:18.079Z,25.85
2022-12-14T13:33:45.735Z,23.27
2022-12-14T13:36:20.837Z,24.80
2022-12-14T13:38:41.449Z,22.83
2022-12-14T13:41:06.164Z,24.20
2022-12-14T13:43:30.131Z,23.27
2022-12-14T13:45:38.774Z,24.77
2022-12-14T13:47:45.105Z,26.15
2022-12-14T13:50:18.438Z,25.75
2022-12-14T13:52:31.462Z,24.50
2022-12-14T13:54:37.076Z,25.38
2022-12-14T13:56:40.636Z,25.20
2022-12-14T13:58:46.340Z,24.83
2022-12-14T14:00:58.304Z,22.58
2022-12-14T14:03:02.452Z,25.58
2022-12-14T14:05:45.889Z,23.95
2022-12-14T14:07:54.274Z,21.50
2022-12-14T14:10:04.200Z,22.88
2022-12-14T14:12:35.770Z,23.65
2022-12-14T14:14:51.786Z,24.33
2022-12-14T14:16:57.914Z,23.55
2022-12-14T14:19:05.565Z,23.17
2022-12-14T14:21:32.886Z,21.92
2022-12-14T14:23:39.076Z,19.35
2022-12-14T14:25:46.888Z,20.42
2022-12-14T14:27:56.142Z,21.85
2022-12-14T14:29:59.231Z,21.85
2022-12-14T14:32:03.601Z,22.73
2022-12-14T14:34:06.326Z,23.02
2022-12-14T14:36:11.772Z,22.92
2022-12-14T14:38:27.324Z,22.05
2022-12-14T14:41:06.638Z,22.00
2022-12-14T14:43:05.524Z,21.60
2022-12-14T14:45:23.979Z,20.73
2022-12-14T14:47:31.101Z,24.08
2022-12-14T14:49:39.375Z,21.13
2022-12-14T14:51:42.078Z,22.55
2022-12-14T14:53:45.434Z,20.50
2022-12-14T14:56:04.690Z,21.67
2022-12-14T14:58:22.519Z,21.08
2022-12-14T15:00:25.720Z,22.23
2022-12-14T15:02:34.300Z,20.05
2022-12-14T15:04:45.508Z,21.02
2022-12-14T15:06:51.875Z,19.00
2022-12-14T15:09:00.087Z,19.00
2022-12-14T15:11:06.095Z,19.48
2022-12-14T15:13:17.866Z,21.60
2022-12-14T15:15:27.926Z,20.45
2022-12-14T15:17:30.881Z,18.17
2022-12-14T15:19:35.990Z,20.25
2022-12-14T15:21:39.274Z,18.30
2022-12-14T15:23:49.239Z,14.45
2022-12-14T15:26:01.327Z,16.15
2022-12-14T15:28:08.715Z,17.10
2022-12-14T15:30:20.882Z,17.20
2022-12-14T15:32:26.196Z,17.88
2022-12-14T15:34:29.206Z,16.08
2022-12-14T15:36:35.417Z,16.40
2022-12-14T15:38:38.390Z,14.70
2022-12-14T15:40:41.220Z,14.70
2022-12-14T15:42:48.215Z,14.95
2022-12-14T15:46:55.518Z,13.93
2022-12-14T15:49:01.288Z,15.48
2022-12-14T15:51:06.930Z,16.48
2022-12-14T15:53:14.555Z,16.27
2022-12-14T15:55:33.209Z,16.92
2022-12-14T15:57:39.211Z,15.48
2022-12-14T15:59:45.002Z,15.27
2022-12-14T16:02:04.755Z,16.05
2022-12-14T16:04:16.220Z,17.83
2022-12-14T16:06:19.877Z,17.55
2022-12-14T16:08:23.465Z,16.50
2022-12-14T16:10:31.820Z,16.40
2022-12-14T16:12:45.034Z,16.77
2022-12-14T16:14:54.162Z,17.45
2022-12-14T16:16:57.387Z,15.45
2022-12-14T16:19:20.401Z,16.02
2022-12-14T16:21:29.982Z,15.20
2022-12-14T16:23:39.196Z,15.23
2022-12-14T16:25:52.414Z,15.35
2022-12-14T16:27:55.676Z,16.17
2022-12-14T16:30:22.898Z,17.45
2022-12-14T16:32:25.663Z,18.23
2022-12-14T16:34:28.646Z,17.77
2022-12-14T16:36:36.571Z,18.05
2022-12-14T16:38:42.597Z,18.40
2022-12-14T16:40:54.096Z,16.92
2022-12-14T16:42:56.848Z,17.23
2022-12-14T16:44:59.610Z,18.65
2022-12-14T16:47:26.195Z,18.27
2022-12-14T16:49:33.301Z,21.00
2022-12-14T16:54:04.904Z,17.55
2022-12-14T16:56:17.178Z,18.65
2022-12-14T16:58:19.855Z,18.10
2022-12-14T17:00:26.344Z,17.85
2022-12-14T17:02:33.267Z,18.60
2022-12-14T17:04:38.666Z,18.38
2022-12-14T17:06:48.563Z,19.27
2022-12-14T17:08:51.643Z,19.20
2022-12-14T17:10:55.134Z,18.60
2022-12-14T17:12:58.913Z,17.40
2022-12-14T17:15:04.409Z,18.90
2022-12-14T17:17:07.446Z,21.25
2022-12-14T17:19:18.778Z,15.93
2022-12-14T17:21:26.186Z,17.17
2022-12-14T17:23:30.977Z,19.27
2022-12-14T17:25:34.213Z,17.83
2022-12-14T17:27:37.012Z,16.75
2022-12-14T17:29:39.668Z,16.75
2022-12-14T17:31:50.082Z,16.50
2022-12-14T17:33:54.796Z,15.07
2022-12-14T17:35:57.550Z,15.85
2022-12-14T17:38:00.471Z,15.85
2022-12-14T17:40:05.775Z,14.82
2022-12-14T17:42:12.026Z,13.82
2022-12-14T17:44:16.213Z,15.20
2022-12-14T17:46:18.917Z,13.80
2022-12-14T17:48:22.229Z,14.38
2022-12-14T17:50:25.901Z,14.48
2022-12-14T17:52:31.681Z,15.07
2022-12-14T17:54:34.853Z,14.50
2022-12-14T17:56:38.867Z,13.68
2022-12-14T17:58:45.408Z,14.95
2022-12-14T18:01:04.613Z,15.65
2022-12-14T18:03:07.671Z,14.48
2022-12-14T18:05:18.591Z,14.68
2022-12-14T18:07:21.239Z,15.32
2022-12-14T18:09:23.894Z,14.45
2022-12-14T18:11:27.938Z,14.52
2022-12-14T18:13:32.604Z,15.40
2022-12-14T18:15:38.942Z,16.83
2022-12-14T18:17:41.736Z,15.27
2022-12-14T18:19:44.835Z,16.40
2022-12-14T18:21:50.563Z,16.10
2022-12-14T18:23:53.709Z,17.33
2022-12-14T18:25:58.969Z,17.05
2022-12-14T18:28:02.800Z,15.40
2022-12-14T18:30:08.511Z,16.45
2022-12-14T18:32:14.795Z,13.40
2022-12-14T18:34:17.473Z,15.43
2022-12-14T18:36:21.586Z,15.30
2022-12-14T18:38:24.698Z,14.75
2022-12-14T18:40:29.624Z,14.52
2022-12-14T18:42:32.282Z,14.55
2022-12-14T18:44:34.981Z,14.27
2022-12-14T18:46:39.291Z,14.35
2022-12-14T18:48:43.195Z,15.27
2022-12-14T18:50:46.037Z,14.80
2022-12-14T18:52:52.758Z,13.18
2022-12-14T18:54:55.428Z,15.02
2022-12-14T18:56:58.033Z,15.32
2022-12-14T18:59:01.416Z,17.30
2022-12-14T19:01:04.422Z,14.80
2022-12-14T19:03:08.528Z,17.13
2022-12-14T19:05:11.767Z,16.05
2022-12-14T19:07:15.670Z,16.58
2022-12-14T19:09:18.447Z,16.80
2022-12-14T19:11:30.331Z,16.45
2022-12-14T19:13:33.344Z,16.58
2022-12-14T19:15:36.852Z,15.98
2022-12-14T19:17:39.655Z,16.77
2022-12-14T19:19:44.723Z,18.05
2022-12-14T19:21:47.470Z,17.65
2022-12-14T19:23:50.242Z,18.13
2022-12-14T19:25:52.848Z,18.58
2022-12-14T19:30:22.785Z,16.98
2022-12-14T19:32:25.793Z,18.13
2022-12-14T19:34:28.446Z,15.05
2022-12-14T19:36:32.467Z,15.77
2022-12-14T19:38:35.679Z,17.15
2022-12-14T19:40:38.328Z,15.13
2022-12-14T19:42:41.221Z,17.15
2022-12-14T19:44:44.094Z,15.70
2022-12-14T19:46:51.944Z,15.85
2022-12-14T19:48:55.653Z,16.08
2022-12-14T19:50:58.313Z,14.98
2022-12-14T19:53:02.329Z,15.45
2022-12-14T19:55:05.450Z,14.50
2022-12-14T19:57:08.504Z,15.18
2022-12-14T19:59:11.243Z,15.10
2022-12-14T20:01:16.231Z,16.58
2022-12-14T20:03:19.131Z,15.68
2022-12-14T20:05:22.253Z,15.93
2022-12-14T20:07:24.902Z,16.13
2022-12-14T20:09:28.989Z,16.48
2022-12-14T20:11:31.609Z,16.25
2022-12-14T20:13:34.767Z,16.00
2022-12-14T20:15:38.769Z,18.17
2022-12-14T20:17:41.433Z,17.80
2022-12-14T20:19:44.536Z,18.88
2022-12-14T20:21:47.176Z,17.45
2022-12-14T20:23:50.158Z,17.92
2022-12-14T20:25:54.204Z,17.85
2022-12-14T20:27:56.860Z,18.20
2022-12-14T20:29:59.668Z,18.23
2022-12-14T20:32:02.369Z,20.58
2022-12-14T20:34:06.499Z,17.48
2022-12-14T20:36:10.055Z,18.77
2022-12-14T20:38:12.813Z,20.27
2022-12-14T20:40:15.614Z,17.52
2022-12-14T20:42:19.572Z,20.08
2022-12-14T20:44:22.303Z,19.60
2022-12-14T20:46:28.479Z,20.58
2022-12-14T20:48:31.879Z,21.65
2022-12-14T20:50:35.104Z,20.13
2022-12-14T20:52:38.284Z,20.15
2022-12-14T20:54:40.884Z,20.55
2022-12-14T20:56:44.924Z,20.35
2022-12-14T20:58:53.585Z,20.17
2022-12-14T21:00:56.293Z,19.88
2022-12-14T21:02:59.077Z,21.10
2022-12-14T21:05:01.856Z,18.77
2022-12-14T21:07:04.469Z,23.90
2022-12-14T21:09:11.529Z,21.35
2022-12-14T21:13:31.105Z,19.05
2022-12-14T21:15:36.272Z,20.88
2022-12-14T21:17:39.067Z,18.70
2022-12-14T21:19:42.054Z,20.92
2022-12-14T21:21:51.470Z,20.42
2022-12-14T21:23:56.148Z,19.25
2022-12-14T21:26:02.483Z,19.98
2022-12-14T21:28:05.526Z,20.45
2022-12-14T21:30:10.441Z,18.27
2022-12-14T21:32:15.034Z,18.27
2022-12-14T21:34:20.217Z,20.13
2022-12-14T21:36:23.179Z,21.55
2022-12-14T21:38:25.944Z,21.10
2022-12-14T21:40:46.137Z,20.88
2022-12-14T21:42:50.437Z,17.83
2022-12-14T21:44:54.302Z,19.15
2022-12-14T21:46:57.335Z,19.23
2022-12-14T21:49:01.514Z,20.23
2022-12-14T21:51:07.406Z,18.20
2022-12-14T21:53:10.086Z,18.88
2022-12-14T21:55:13.081Z,17.50
2022-12-14T21:57:34.816Z,19.10
2022-12-14T21:59:39.919Z,20.10
2022-12-14T22:01:43.366Z,19.42
2022-12-14T22:03:46.155Z,19.30
2022-12-14T22:05:53.603Z,18.30
2022-12-14T22:07:56.631Z,19.98
2022-12-14T22:09:59.434Z,22.25
2022-12-14T22:12:02.104Z,19.20
2022-12-14T22:14:05.419Z,19.95
2022-12-14T22:16:08.745Z,21.20
2022-12-14T22:18:12.334Z,20.58
2022-12-14T22:20:15.417Z,19.33
2022-12-14T22:22:19.477Z,18.15
2022-12-14T22:24:24.091Z,17.70
2022-12-14T22:26:26.736Z,19.80
2022-12-14T22:28:29.419Z,18.05
2022-12-14T22:30:32.206Z,19.90
2022-12-14T22:32:34.866Z,18.83
2022-12-14T22:34:37.632Z,18.75
2022-12-14T22:36:40.285Z,16.25
2022-12-14T22:38:44.803Z,16.65
2022-12-14T22:40:47.553Z,17.65
2022-12-14T22:42:50.220Z,20.30
2022-12-14T22:44:53.210Z,19.70
2022-12-14T22:46:55.923Z,20.45
2022-12-14T22:48:58.654Z,18.73
2022-12-14T22:51:02.218Z,18.50
2022-12-14T22:53:05.026Z,19.13
2022-12-14T22:55:09.965Z,19.35
2022-12-14T22:57:17.974Z,18.35
2022-12-14T22:59:25.039Z,17.58
2022-12-14T23:03:31.651Z,16.33
2022-12-14T23:05:34.696Z,18.30
2022-12-14T23:07:37.778Z,18.30
2022-12-14T23:09:58.058Z,17.50
2022-12-14T23:12:21.859Z,15.60
2022-12-14T23:14:42.457Z,16.65
2022-12-14T23:17:02.805Z,16.40
2022-12-14T23:19:22.985Z,18.80
2022-12-14T23:21:43.334Z,18.92
2022-12-14T23:24:04.850Z,17.58
2022-12-14T23:26:25.231Z,17.60
2022-12-14T23:28:50.032Z,15.80
2022-12-14T23:31:10.779Z,17.75
2022-12-14T23:33:31.487Z,17.42
2022-12-14T23:35:51.892Z,20.35
2022-12-14T23:38:12.240Z,18.05
2022-12-14T23:40:32.920Z,17.73
2022-12-14T23:42:53.226Z,19.08
2022-12-14T23:45:14.711Z,16.98
2022-12-14T23:47:34.959Z,17.35
2022-12-14T23:49:55.138Z,19.10
2022-12-14T23:52:15.524Z,19.17
2022-12-14T23:54:35.985Z,17.75
2022-12-14T23:56:56.193Z,18.77
2022-12-14T23:59:18.682Z,19.25
